sensor_id;sensor_type;location;lat;lon;timestamp;P1;durP1;ratioP1;P2;durP2;ratioP2
8626;SDS011;4351;51.422;6.794;2023-04-15T00:02:21;9.67;;;5.40;;
8626;SDS011;4351;51.422;6.794;2023-04-15T00:04:49;9.83;;;6.07;;
8626;SDS011;4351;51.422;6.794;2023-04-15T00:07:18;11.57;;;6.20;;
8626;SDS011;4351;51.422;6.794;2023-04-15T00:09:45;8.63;;;6.47;;
8626;SDS011;4351;51.422;6.794;2023-04-15T00:12:13;11.13;;;6.63;;
8626;SDS011;4351;51.422;6.794;2023-04-15T00:14:41;12.13;;;6.43;;
8626;SDS011;4351;51.422;6.794;2023-04-15T00:17:10;10.07;;;6.47;;
8626;SDS011;4351;51.422;6.794;2023-04-15T00:19:39;9.07;;;5.93;;
8626;SDS011;4351;51.422;6.794;2023-04-15T00:22:07;9.70;;;5.87;;
8626;SDS011;4351;51.422;6.794;2023-04-15T00:24:35;9.37;;;6.30;;
8626;SDS011;4351;51.422;6.794;2023-04-15T00:27:02;10.73;;;6.30;;
8626;SDS011;4351;51.422;6.794;2023-04-15T00:29:30;10.13;;;6.80;;
8626;SDS011;4351;51.422;6.794;2023-04-15T00:31:58;10.83;;;6.53;;
8626;SDS011;4351;51.422;6.794;2023-04-15T00:34:26;9.47;;;6.67;;
8626;SDS011;4351;51.422;6.794;2023-04-15T00:36:56;8.67;;;5.90;;
8626;SDS011;4351;51.422;6.794;2023-04-15T00:39:25;8.67;;;6.10;;
8626;SDS011;4351;51.422;6.794;2023-04-15T00:41:53;10.17;;;6.70;;
8626;SDS011;4351;51.422;6.794;2023-04-15T00:44:22;13.27;;;6.63;;
8626;SDS011;4351;51.422;6.794;2023-04-15T00:46:50;10.73;;;6.40;;
8626;SDS011;4351;51.422;6.794;2023-04-15T00:49:18;10.70;;;7.00;;
8626;SDS011;4351;51.422;6.794;2023-04-15T00:51:47;11.20;;;7.00;;
8626;SDS011;4351;51.422;6.794;2023-04-15T00:54:16;13.03;;;7.30;;
8626;SDS011;4351;51.422;6.794;2023-04-15T00:56:44;11.47;;;6.50;;
8626;SDS011;4351;51.422;6.794;2023-04-15T00:59:12;9.37;;;6.00;;
8626;SDS011;4351;51.422;6.794;2023-04-15T01:01:40;8.83;;;6.37;;
8626;SDS011;4351;51.422;6.794;2023-04-15T01:04:10;11.13;;;6.83;;
8626;SDS011;4351;51.422;6.794;2023-04-15T01:06:40;9.73;;;6.97;;
8626;SDS011;4351;51.422;6.794;2023-04-15T01:09:09;11.17;;;6.47;;
8626;SDS011;4351;51.422;6.794;2023-04-15T01:11:39;10.20;;;6.73;;
8626;SDS011;4351;51.422;6.794;2023-04-15T01:14:07;13.23;;;6.40;;
8626;SDS011;4351;51.422;6.794;2023-04-15T01:16:36;9.50;;;7.03;;
8626;SDS011;4351;51.422;6.794;2023-04-15T01:19:07;7.83;;;6.23;;
8626;SDS011;4351;51.422;6.794;2023-04-15T01:21:37;8.90;;;6.63;;
8626;SDS011;4351;51.422;6.794;2023-04-15T01:24:07;8.97;;;6.40;;
8626;SDS011;4351;51.422;6.794;2023-04-15T01:26:38;11.67;;;7.00;;
8626;SDS011;4351;51.422;6.794;2023-04-15T01:29:08;11.80;;;7.33;;
8626;SDS011;4351;51.422;6.794;2023-04-15T01:31:36;10.50;;;6.63;;
8626;SDS011;4351;51.422;6.794;2023-04-15T01:34:04;10.23;;;7.63;;
8626;SDS011;4351;51.422;6.794;2023-04-15T01:36:32;14.47;;;8.60;;
8626;SDS011;4351;51.422;6.794;2023-04-15T01:39:00;14.50;;;8.00;;
8626;SDS011;4351;51.422;6.794;2023-04-15T01:41:28;11.13;;;7.43;;
8626;SDS011;4351;51.422;6.794;2023-04-15T01:43:58;13.27;;;7.63;;
8626;SDS011;4351;51.422;6.794;2023-04-15T01:46:26;16.10;;;7.73;;
8626;SDS011;4351;51.422;6.794;2023-04-15T01:48:54;12.83;;;7.80;;
8626;SDS011;4351;51.422;6.794;2023-04-15T01:51:23;15.00;;;8.00;;
8626;SDS011;4351;51.422;6.794;2023-04-15T01:53:52;13.07;;;7.80;;
8626;SDS011;4351;51.422;6.794;2023-04-15T01:56:22;13.13;;;7.80;;
8626;SDS011;4351;51.422;6.794;2023-04-15T01:58:50;11.93;;;7.53;;
8626;SDS011;4351;51.422;6.794;2023-04-15T02:01:20;10.90;;;8.17;;
8626;SDS011;4351;51.422;6.794;2023-04-15T02:03:49;10.03;;;7.00;;
8626;SDS011;4351;51.422;6.794;2023-04-15T02:06:17;13.37;;;7.80;;
8626;SDS011;4351;51.422;6.794;2023-04-15T02:08:46;14.40;;;7.77;;
8626;SDS011;4351;51.422;6.794;2023-04-15T02:11:14;11.20;;;7.73;;
8626;SDS011;4351;51.422;6.794;2023-04-15T02:13:42;12.23;;;7.90;;
8626;SDS011;4351;51.422;6.794;2023-04-15T02:16:16;13.10;;;8.37;;
8626;SDS011;4351;51.422;6.794;2023-04-15T02:18:46;10.43;;;8.23;;
8626;SDS011;4351;51.422;6.794;2023-04-15T02:21:14;13.30;;;8.87;;
8626;SDS011;4351;51.422;6.794;2023-04-15T02:23:41;12.00;;;8.57;;
8626;SDS011;4351;51.422;6.794;2023-04-15T02:26:11;13.03;;;8.63;;
8626;SDS011;4351;51.422;6.794;2023-04-15T02:28:40;11.80;;;8.50;;
8626;SDS011;4351;51.422;6.794;2023-04-15T02:31:07;13.03;;;8.13;;
8626;SDS011;4351;51.422;6.794;2023-04-15T02:33:35;13.73;;;8.83;;
8626;SDS011;4351;51.422;6.794;2023-04-15T02:36:05;14.20;;;9.10;;
8626;SDS011;4351;51.422;6.794;2023-04-15T02:38:33;15.27;;;9.00;;
8626;SDS011;4351;51.422;6.794;2023-04-15T02:41:01;12.30;;;9.03;;
8626;SDS011;4351;51.422;6.794;2023-04-15T02:43:29;13.40;;;8.67;;
8626;SDS011;4351;51.422;6.794;2023-04-15T02:45:58;12.57;;;8.47;;
8626;SDS011;4351;51.422;6.794;2023-04-15T02:48:26;10.93;;;8.63;;
8626;SDS011;4351;51.422;6.794;2023-04-15T02:53:42;13.43;;;9.10;;
8626;SDS011;4351;51.422;6.794;2023-04-15T02:56:10;14.33;;;9.67;;
8626;SDS011;4351;51.422;6.794;2023-04-15T02:58:38;14.30;;;8.90;;
8626;SDS011;4351;51.422;6.794;2023-04-15T03:01:06;13.77;;;10.43;;
8626;SDS011;4351;51.422;6.794;2023-04-15T03:03:35;14.23;;;9.77;;
8626;SDS011;4351;51.422;6.794;2023-04-15T03:06:03;13.77;;;9.30;;
8626;SDS011;4351;51.422;6.794;2023-04-15T03:08:32;15.50;;;9.87;;
8626;SDS011;4351;51.422;6.794;2023-04-15T03:11:00;13.23;;;9.40;;
8626;SDS011;4351;51.422;6.794;2023-04-15T03:13:28;14.67;;;9.53;;
8626;SDS011;4351;51.422;6.794;2023-04-15T03:15:57;13.90;;;9.23;;
8626;SDS011;4351;51.422;6.794;2023-04-15T03:18:26;16.20;;;9.63;;
8626;SDS011;4351;51.422;6.794;2023-04-15T03:20:59;14.67;;;9.87;;
8626;SDS011;4351;51.422;6.794;2023-04-15T03:23:29;13.20;;;9.77;;
8626;SDS011;4351;51.422;6.794;2023-04-15T03:26:01;14.17;;;9.90;;
8626;SDS011;4351;51.422;6.794;2023-04-15T03:28:31;17.33;;;12.37;;
8626;SDS011;4351;51.422;6.794;2023-04-15T03:31:00;17.93;;;10.73;;
8626;SDS011;4351;51.422;6.794;2023-04-15T03:33:28;12.63;;;9.70;;
8626;SDS011;4351;51.422;6.794;2023-04-15T03:35:56;15.33;;;10.57;;
8626;SDS011;4351;51.422;6.794;2023-04-15T03:38:24;15.37;;;10.60;;
8626;SDS011;4351;51.422;6.794;2023-04-15T03:40:52;12.93;;;9.70;;
8626;SDS011;4351;51.422;6.794;2023-04-15T03:43:22;15.00;;;10.27;;
8626;SDS011;4351;51.422;6.794;2023-04-15T03:45:50;15.13;;;10.03;;
8626;SDS011;4351;51.422;6.794;2023-04-15T03:48:18;14.80;;;9.73;;
8626;SDS011;4351;51.422;6.794;2023-04-15T03:50:46;15.30;;;10.60;;
8626;SDS011;4351;51.422;6.794;2023-04-15T03:53:14;14.27;;;10.60;;
8626;SDS011;4351;51.422;6.794;2023-04-15T03:55:42;13.17;;;10.07;;
8626;SDS011;4351;51.422;6.794;2023-04-15T03:58:10;12.43;;;9.97;;
8626;SDS011;4351;51.422;6.794;2023-04-15T04:00:39;14.27;;;10.40;;
8626;SDS011;4351;51.422;6.794;2023-04-15T04:03:07;15.30;;;10.20;;
8626;SDS011;4351;51.422;6.794;2023-04-15T04:05:36;13.97;;;9.93;;
8626;SDS011;4351;51.422;6.794;2023-04-15T04:08:06;12.23;;;9.80;;
8626;SDS011;4351;51.422;6.794;2023-04-15T04:10:34;13.40;;;9.57;;
8626;SDS011;4351;51.422;6.794;2023-04-15T04:13:02;18.10;;;10.67;;
8626;SDS011;4351;51.422;6.794;2023-04-15T04:15:30;14.93;;;10.60;;
8626;SDS011;4351;51.422;6.794;2023-04-15T04:17:59;13.13;;;9.80;;
8626;SDS011;4351;51.422;6.794;2023-04-15T04:20:27;13.93;;;10.57;;
8626;SDS011;4351;51.422;6.794;2023-04-15T04:22:57;14.37;;;10.00;;
8626;SDS011;4351;51.422;6.794;2023-04-15T04:25:25;14.43;;;9.97;;
8626;SDS011;4351;51.422;6.794;2023-04-15T04:27:53;16.43;;;10.40;;
8626;SDS011;4351;51.422;6.794;2023-04-15T04:30:21;13.67;;;10.13;;
8626;SDS011;4351;51.422;6.794;2023-04-15T04:32:49;13.30;;;10.23;;
8626;SDS011;4351;51.422;6.794;2023-04-15T04:35:18;15.43;;;9.97;;
8626;SDS011;4351;51.422;6.794;2023-04-15T04:37:47;11.70;;;9.40;;
8626;SDS011;4351;51.422;6.794;2023-04-15T04:40:15;14.83;;;10.00;;
8626;SDS011;4351;51.422;6.794;2023-04-15T04:42:42;16.27;;;9.70;;
8626;SDS011;4351;51.422;6.794;2023-04-15T04:45:11;12.60;;;9.10;;
8626;SDS011;4351;51.422;6.794;2023-04-15T04:47:39;14.23;;;9.60;;
8626;SDS011;4351;51.422;6.794;2023-04-15T04:50:07;15.10;;;9.80;;
8626;SDS011;4351;51.422;6.794;2023-04-15T04:52:37;13.97;;;8.73;;
8626;SDS011;4351;51.422;6.794;2023-04-15T04:55:05;12.50;;;9.13;;
8626;SDS011;4351;51.422;6.794;2023-04-15T04:57:33;14.07;;;9.90;;
8626;SDS011;4351;51.422;6.794;2023-04-15T05:00:03;15.70;;;9.97;;
8626;SDS011;4351;51.422;6.794;2023-04-15T05:02:32;13.90;;;10.07;;
8626;SDS011;4351;51.422;6.794;2023-04-15T05:05:00;12.20;;;8.93;;
8626;SDS011;4351;51.422;6.794;2023-04-15T05:07:27;13.33;;;9.70;;
8626;SDS011;4351;51.422;6.794;2023-04-15T05:09:57;14.60;;;9.47;;
8626;SDS011;4351;51.422;6.794;2023-04-15T05:12:25;13.13;;;9.63;;
8626;SDS011;4351;51.422;6.794;2023-04-15T05:14:52;16.70;;;10.33;;
8626;SDS011;4351;51.422;6.794;2023-04-15T05:17:20;16.63;;;10.17;;
8626;SDS011;4351;51.422;6.794;2023-04-15T05:19:48;15.10;;;9.77;;
8626;SDS011;4351;51.422;6.794;2023-04-15T05:22:16;11.17;;;8.93;;
8626;SDS011;4351;51.422;6.794;2023-04-15T05:24:44;13.87;;;9.50;;
8626;SDS011;4351;51.422;6.794;2023-04-15T05:27:13;12.43;;;9.70;;
8626;SDS011;4351;51.422;6.794;2023-04-15T05:29:41;12.93;;;9.60;;
8626;SDS011;4351;51.422;6.794;2023-04-15T05:32:09;12.87;;;9.60;;
8626;SDS011;4351;51.422;6.794;2023-04-15T05:34:37;11.63;;;8.87;;
8626;SDS011;4351;51.422;6.794;2023-04-15T05:37:05;14.37;;;10.43;;
8626;SDS011;4351;51.422;6.794;2023-04-15T05:39:33;14.17;;;9.97;;
8626;SDS011;4351;51.422;6.794;2023-04-15T05:42:00;13.70;;;9.47;;
8626;SDS011;4351;51.422;6.794;2023-04-15T05:44:30;12.47;;;10.17;;
8626;SDS011;4351;51.422;6.794;2023-04-15T05:46:58;14.23;;;9.83;;
8626;SDS011;4351;51.422;6.794;2023-04-15T05:49:26;14.60;;;10.23;;
8626;SDS011;4351;51.422;6.794;2023-04-15T05:51:54;12.03;;;9.80;;
8626;SDS011;4351;51.422;6.794;2023-04-15T05:54:22;15.97;;;11.27;;
8626;SDS011;4351;51.422;6.794;2023-04-15T05:56:50;13.23;;;10.40;;
8626;SDS011;4351;51.422;6.794;2023-04-15T05:59:18;15.10;;;11.10;;
8626;SDS011;4351;51.422;6.794;2023-04-15T06:01:47;14.23;;;10.40;;
8626;SDS011;4351;51.422;6.794;2023-04-15T06:04:15;17.33;;;11.40;;
8626;SDS011;4351;51.422;6.794;2023-04-15T06:06:43;14.10;;;10.20;;
8626;SDS011;4351;51.422;6.794;2023-04-15T06:09:11;16.23;;;10.67;;
8626;SDS011;4351;51.422;6.794;2023-04-15T06:11:39;17.03;;;10.83;;
8626;SDS011;4351;51.422;6.794;2023-04-15T06:14:07;14.07;;;10.90;;
8626;SDS011;4351;51.422;6.794;2023-04-15T06:16:35;15.10;;;11.10;;
8626;SDS011;4351;51.422;6.794;2023-04-15T06:19:05;17.50;;;12.00;;
8626;SDS011;4351;51.422;6.794;2023-04-15T06:21:33;18.07;;;11.07;;
8626;SDS011;4351;51.422;6.794;2023-04-15T06:24:00;14.27;;;11.20;;
8626;SDS011;4351;51.422;6.794;2023-04-15T06:26:29;16.57;;;12.13;;
8626;SDS011;4351;51.422;6.794;2023-04-15T06:28:56;15.50;;;11.90;;
8626;SDS011;4351;51.422;6.794;2023-04-15T06:31:25;16.60;;;11.90;;
8626;SDS011;4351;51.422;6.794;2023-04-15T06:33:53;17.50;;;12.07;;
8626;SDS011;4351;51.422;6.794;2023-04-15T06:36:22;19.83;;;13.33;;
8626;SDS011;4351;51.422;6.794;2023-04-15T06:38:50;15.60;;;11.53;;
8626;SDS011;4351;51.422;6.794;2023-04-15T06:41:18;19.20;;;12.37;;
8626;SDS011;4351;51.422;6.794;2023-04-15T06:43:46;17.47;;;12.30;;
8626;SDS011;4351;51.422;6.794;2023-04-15T06:46:13;17.37;;;12.27;;
8626;SDS011;4351;51.422;6.794;2023-04-15T06:51:13;18.87;;;12.23;;
8626;SDS011;4351;51.422;6.794;2023-04-15T06:53:42;18.90;;;11.57;;
8626;SDS011;4351;51.422;6.794;2023-04-15T06:56:10;15.17;;;11.60;;
8626;SDS011;4351;51.422;6.794;2023-04-15T06:58:38;14.60;;;11.70;;
8626;SDS011;4351;51.422;6.794;2023-04-15T07:01:05;16.53;;;11.90;;
8626;SDS011;4351;51.422;6.794;2023-04-15T07:03:34;15.00;;;11.07;;
8626;SDS011;4351;51.422;6.794;2023-04-15T07:06:02;17.03;;;11.87;;
8626;SDS011;4351;51.422;6.794;2023-04-15T07:08:31;17.27;;;11.77;;
8626;SDS011;4351;51.422;6.794;2023-04-15T07:11:01;17.63;;;12.13;;
8626;SDS011;4351;51.422;6.794;2023-04-15T07:13:29;15.90;;;11.77;;
8626;SDS011;4351;51.422;6.794;2023-04-15T07:15:58;16.70;;;11.53;;
8626;SDS011;4351;51.422;6.794;2023-04-15T07:18:26;15.70;;;12.10;;
8626;SDS011;4351;51.422;6.794;2023-04-15T07:20:54;13.43;;;10.13;;
8626;SDS011;4351;51.422;6.794;2023-04-15T07:23:22;13.60;;;9.30;;
8626;SDS011;4351;51.422;6.794;2023-04-15T07:25:49;11.40;;;8.77;;
8626;SDS011;4351;51.422;6.794;2023-04-15T07:28:19;12.33;;;8.90;;
8626;SDS011;4351;51.422;6.794;2023-04-15T07:30:47;12.63;;;8.77;;
8626;SDS011;4351;51.422;6.794;2023-04-15T07:33:15;14.57;;;9.07;;
8626;SDS011;4351;51.422;6.794;2023-04-15T07:35:43;10.57;;;8.17;;
8626;SDS011;4351;51.422;6.794;2023-04-15T07:38:12;9.67;;;7.77;;
8626;SDS011;4351;51.422;6.794;2023-04-15T07:40:39;11.30;;;8.23;;
8626;SDS011;4351;51.422;6.794;2023-04-15T07:43:07;10.47;;;7.40;;
8626;SDS011;4351;51.422;6.794;2023-04-15T07:45:37;11.13;;;8.17;;
8626;SDS011;4351;51.422;6.794;2023-04-15T07:48:05;11.30;;;7.63;;
8626;SDS011;4351;51.422;6.794;2023-04-15T07:50:33;10.13;;;7.53;;
8626;SDS011;4351;51.422;6.794;2023-04-15T07:53:01;10.70;;;7.23;;
8626;SDS011;4351;51.422;6.794;2023-04-15T07:55:29;10.37;;;8.10;;
8626;SDS011;4351;51.422;6.794;2023-04-15T07:57:56;11.27;;;7.60;;
8626;SDS011;4351;51.422;6.794;2023-04-15T08:00:24;10.97;;;7.50;;
8626;SDS011;4351;51.422;6.794;2023-04-15T08:02:55;10.63;;;7.83;;
8626;SDS011;4351;51.422;6.794;2023-04-15T08:05:24;11.67;;;7.80;;
8626;SDS011;4351;51.422;6.794;2023-04-15T08:07:53;10.90;;;7.60;;
8626;SDS011;4351;51.422;6.794;2023-04-15T08:10:21;9.40;;;7.00;;
8626;SDS011;4351;51.422;6.794;2023-04-15T08:12:49;7.47;;;6.00;;
8626;SDS011;4351;51.422;6.794;2023-04-15T08:15:19;7.50;;;5.73;;
8626;SDS011;4351;51.422;6.794;2023-04-15T08:17:47;7.20;;;4.87;;
8626;SDS011;4351;51.422;6.794;2023-04-15T08:20:16;7.20;;;4.97;;
8626;SDS011;4351;51.422;6.794;2023-04-15T08:22:44;5.93;;;4.20;;
8626;SDS011;4351;51.422;6.794;2023-04-15T08:25:17;5.60;;;4.37;;
8626;SDS011;4351;51.422;6.794;2023-04-15T08:27:45;7.60;;;4.40;;
8626;SDS011;4351;51.422;6.794;2023-04-15T08:30:13;6.47;;;4.53;;
8626;SDS011;4351;51.422;6.794;2023-04-15T08:32:41;5.37;;;4.23;;
8626;SDS011;4351;51.422;6.794;2023-04-15T08:35:09;6.50;;;5.27;;
8626;SDS011;4351;51.422;6.794;2023-04-15T08:37:38;7.37;;;4.30;;
8626;SDS011;4351;51.422;6.794;2023-04-15T08:40:07;4.60;;;3.77;;
8626;SDS011;4351;51.422;6.794;2023-04-15T08:42:36;5.20;;;3.93;;
8626;SDS011;4351;51.422;6.794;2023-04-15T08:45:10;6.10;;;4.20;;
8626;SDS011;4351;51.422;6.794;2023-04-15T08:47:38;5.67;;;4.03;;
8626;SDS011;4351;51.422;6.794;2023-04-15T08:50:08;4.60;;;3.60;;
8626;SDS011;4351;51.422;6.794;2023-04-15T08:52:37;4.30;;;3.57;;
8626;SDS011;4351;51.422;6.794;2023-04-15T08:55:07;4.40;;;3.70;;
8626;SDS011;4351;51.422;6.794;2023-04-15T08:57:35;3.77;;;3.00;;
8626;SDS011;4351;51.422;6.794;2023-04-15T09:00:05;4.47;;;2.90;;
8626;SDS011;4351;51.422;6.794;2023-04-15T09:02:34;3.73;;;2.80;;
8626;SDS011;4351;51.422;6.794;2023-04-15T09:05:03;4.50;;;3.10;;
8626;SDS011;4351;51.422;6.794;2023-04-15T09:07:32;5.43;;;3.80;;
8626;SDS011;4351;51.422;6.794;2023-04-15T09:10:02;4.60;;;3.47;;
8626;SDS011;4351;51.422;6.794;2023-04-15T09:12:32;3.97;;;3.50;;
8626;SDS011;4351;51.422;6.794;2023-04-15T09:15:01;4.40;;;3.83;;
8626;SDS011;4351;51.422;6.794;2023-04-15T09:17:29;5.13;;;3.87;;
8626;SDS011;4351;51.422;6.794;2023-04-15T09:20:06;7.63;;;4.10;;
8626;SDS011;4351;51.422;6.794;2023-04-15T09:22:35;4.90;;;3.53;;
8626;SDS011;4351;51.422;6.794;2023-04-15T09:25:05;7.50;;;3.93;;
8626;SDS011;4351;51.422;6.794;2023-04-15T09:27:53;7.00;;;3.80;;
8626;SDS011;4351;51.422;6.794;2023-04-15T09:30:22;5.03;;;3.80;;
8626;SDS011;4351;51.422;6.794;2023-04-15T09:32:50;5.80;;;3.70;;
8626;SDS011;4351;51.422;6.794;2023-04-15T09:35:20;5.33;;;3.97;;
8626;SDS011;4351;51.422;6.794;2023-04-15T09:37:49;6.40;;;4.30;;
8626;SDS011;4351;51.422;6.794;2023-04-15T09:40:30;5.80;;;4.10;;
8626;SDS011;4351;51.422;6.794;2023-04-15T09:42:59;5.50;;;3.90;;
8626;SDS011;4351;51.422;6.794;2023-04-15T09:45:28;5.87;;;4.00;;
8626;SDS011;4351;51.422;6.794;2023-04-15T09:47:56;5.67;;;4.17;;
8626;SDS011;4351;51.422;6.794;2023-04-15T09:50:26;6.50;;;4.10;;
8626;SDS011;4351;51.422;6.794;2023-04-15T09:52:54;4.83;;;3.27;;
8626;SDS011;4351;51.422;6.794;2023-04-15T09:55:22;6.90;;;3.80;;
8626;SDS011;4351;51.422;6.794;2023-04-15T09:57:51;4.90;;;3.87;;
8626;SDS011;4351;51.422;6.794;2023-04-15T10:00:20;3.87;;;3.47;;
8626;SDS011;4351;51.422;6.794;2023-04-15T10:02:48;3.83;;;3.20;;
8626;SDS011;4351;51.422;6.794;2023-04-15T10:05:16;4.47;;;3.50;;
8626;SDS011;4351;51.422;6.794;2023-04-15T10:07:44;4.73;;;4.03;;
8626;SDS011;4351;51.422;6.794;2023-04-15T10:10:13;5.30;;;4.23;;
8626;SDS011;4351;51.422;6.794;2023-04-15T10:12:42;5.00;;;3.77;;
8626;SDS011;4351;51.422;6.794;2023-04-15T10:15:13;7.03;;;4.60;;
8626;SDS011;4351;51.422;6.794;2023-04-15T10:17:43;6.43;;;4.77;;
8626;SDS011;4351;51.422;6.794;2023-04-15T10:20:12;4.87;;;4.33;;
8626;SDS011;4351;51.422;6.794;2023-04-15T10:22:41;5.73;;;4.47;;
8626;SDS011;4351;51.422;6.794;2023-04-15T10:25:13;6.07;;;4.43;;
8626;SDS011;4351;51.422;6.794;2023-04-15T10:27:41;5.73;;;4.87;;
8626;SDS011;4351;51.422;6.794;2023-04-15T10:30:10;6.33;;;4.77;;
8626;SDS011;4351;51.422;6.794;2023-04-15T10:32:39;5.07;;;4.20;;
8626;SDS011;4351;51.422;6.794;2023-04-15T10:35:08;5.60;;;4.40;;
8626;SDS011;4351;51.422;6.794;2023-04-15T10:37:37;5.77;;;4.37;;
8626;SDS011;4351;51.422;6.794;2023-04-15T10:42:53;7.13;;;4.73;;
8626;SDS011;4351;51.422;6.794;2023-04-15T10:45:24;5.90;;;4.70;;
8626;SDS011;4351;51.422;6.794;2023-04-15T10:47:55;6.30;;;4.60;;
8626;SDS011;4351;51.422;6.794;2023-04-15T10:50:26;5.00;;;4.33;;
8626;SDS011;4351;51.422;6.794;2023-04-15T10:52:55;6.40;;;5.30;;
8626;SDS011;4351;51.422;6.794;2023-04-15T10:55:24;7.70;;;5.37;;
8626;SDS011;4351;51.422;6.794;2023-04-15T10:57:53;6.20;;;5.27;;
8626;SDS011;4351;51.422;6.794;2023-04-15T11:00:24;8.57;;;5.10;;
8626;SDS011;4351;51.422;6.794;2023-04-15T11:02:56;7.87;;;5.13;;
8626;SDS011;4351;51.422;6.794;2023-04-15T11:08:18;6.00;;;4.63;;
8626;SDS011;4351;51.422;6.794;2023-04-15T11:10:50;5.77;;;4.60;;
8626;SDS011;4351;51.422;6.794;2023-04-15T11:13:24;5.33;;;3.53;;
8626;SDS011;4351;51.422;6.794;2023-04-15T11:16:01;5.03;;;3.70;;
8626;SDS011;4351;51.422;6.794;2023-04-15T11:18:32;5.50;;;4.00;;
8626;SDS011;4351;51.422;6.794;2023-04-15T11:21:02;4.77;;;3.70;;
8626;SDS011;4351;51.422;6.794;2023-04-15T11:23:35;5.50;;;4.37;;
8626;SDS011;4351;51.422;6.794;2023-04-15T11:26:06;5.80;;;3.60;;
8626;SDS011;4351;51.422;6.794;2023-04-15T11:28:37;5.00;;;4.10;;
8626;SDS011;4351;51.422;6.794;2023-04-15T11:31:07;5.70;;;4.03;;
8626;SDS011;4351;51.422;6.794;2023-04-15T11:33:43;4.70;;;3.80;;
8626;SDS011;4351;51.422;6.794;2023-04-15T11:36:13;5.63;;;4.03;;
8626;SDS011;4351;51.422;6.794;2023-04-15T11:38:45;4.23;;;3.63;;
8626;SDS011;4351;51.422;6.794;2023-04-15T11:41:13;4.87;;;4.07;;
8626;SDS011;4351;51.422;6.794;2023-04-15T11:43:42;5.17;;;3.90;;
8626;SDS011;4351;51.422;6.794;2023-04-15T11:46:10;4.70;;;4.17;;
8626;SDS011;4351;51.422;6.794;2023-04-15T11:48:41;5.87;;;4.17;;
8626;SDS011;4351;51.422;6.794;2023-04-15T11:51:10;4.83;;;3.90;;
8626;SDS011;4351;51.422;6.794;2023-04-15T11:53:40;5.00;;;4.00;;
8626;SDS011;4351;51.422;6.794;2023-04-15T11:56:15;5.10;;;3.87;;
8626;SDS011;4351;51.422;6.794;2023-04-15T11:58:44;4.83;;;4.00;;
8626;SDS011;4351;51.422;6.794;2023-04-15T12:01:12;4.70;;;3.73;;
8626;SDS011;4351;51.422;6.794;2023-04-15T12:03:42;6.13;;;3.67;;
8626;SDS011;4351;51.422;6.794;2023-04-15T12:06:14;5.63;;;3.50;;
8626;SDS011;4351;51.422;6.794;2023-04-15T12:08:48;5.63;;;3.87;;
8626;SDS011;4351;51.422;6.794;2023-04-15T12:11:27;6.43;;;3.67;;
8626;SDS011;4351;51.422;6.794;2023-04-15T12:13:57;9.40;;;3.73;;
8626;SDS011;4351;51.422;6.794;2023-04-15T12:16:29;5.67;;;3.73;;
8626;SDS011;4351;51.422;6.794;2023-04-15T12:18:59;6.33;;;4.00;;
8626;SDS011;4351;51.422;6.794;2023-04-15T12:21:32;5.63;;;4.10;;
8626;SDS011;4351;51.422;6.794;2023-04-15T12:24:03;6.83;;;3.60;;
8626;SDS011;4351;51.422;6.794;2023-04-15T12:26:34;5.53;;;3.77;;
8626;SDS011;4351;51.422;6.794;2023-04-15T12:29:04;4.83;;;3.77;;
8626;SDS011;4351;51.422;6.794;2023-04-15T12:31:33;4.63;;;4.00;;
8626;SDS011;4351;51.422;6.794;2023-04-15T12:34:06;5.63;;;3.50;;
8626;SDS011;4351;51.422;6.794;2023-04-15T12:36:35;5.23;;;3.47;;
8626;SDS011;4351;51.422;6.794;2023-04-15T12:39:03;3.30;;;2.83;;
8626;SDS011;4351;51.422;6.794;2023-04-15T12:41:31;6.67;;;3.53;;
8626;SDS011;4351;51.422;6.794;2023-04-15T12:43:59;6.07;;;3.40;;
8626;SDS011;4351;51.422;6.794;2023-04-15T12:46:28;4.40;;;3.30;;
8626;SDS011;4351;51.422;6.794;2023-04-15T12:48:56;4.67;;;3.50;;
8626;SDS011;4351;51.422;6.794;2023-04-15T12:51:26;4.80;;;3.50;;
8626;SDS011;4351;51.422;6.794;2023-04-15T12:53:54;3.70;;;2.83;;
8626;SDS011;4351;51.422;6.794;2023-04-15T12:56:23;4.60;;;3.30;;
8626;SDS011;4351;51.422;6.794;2023-04-15T12:58:52;4.13;;;3.20;;
8626;SDS011;4351;51.422;6.794;2023-04-15T13:01:19;4.97;;;3.50;;
8626;SDS011;4351;51.422;6.794;2023-04-15T13:03:47;5.83;;;3.30;;
8626;SDS011;4351;51.422;6.794;2023-04-15T13:06:16;3.53;;;3.10;;
8626;SDS011;4351;51.422;6.794;2023-04-15T13:08:46;3.57;;;2.60;;
8626;SDS011;4351;51.422;6.794;2023-04-15T13:11:24;4.57;;;3.03;;
8626;SDS011;4351;51.422;6.794;2023-04-15T13:13:52;4.17;;;3.33;;
8626;SDS011;4351;51.422;6.794;2023-04-15T13:16:21;6.63;;;3.60;;
8626;SDS011;4351;51.422;6.794;2023-04-15T13:18:49;4.70;;;3.50;;
8626;SDS011;4351;51.422;6.794;2023-04-15T13:21:17;5.73;;;4.13;;
8626;SDS011;4351;51.422;6.794;2023-04-15T13:23:46;5.93;;;3.73;;
8626;SDS011;4351;51.422;6.794;2023-04-15T13:26:15;4.93;;;3.47;;
8626;SDS011;4351;51.422;6.794;2023-04-15T13:28:44;4.87;;;3.57;;
8626;SDS011;4351;51.422;6.794;2023-04-15T13:31:12;6.33;;;3.50;;
8626;SDS011;4351;51.422;6.794;2023-04-15T13:33:40;4.33;;;3.20;;
8626;SDS011;4351;51.422;6.794;2023-04-15T13:36:08;5.27;;;3.60;;
8626;SDS011;4351;51.422;6.794;2023-04-15T13:38:35;3.67;;;2.63;;
8626;SDS011;4351;51.422;6.794;2023-04-15T13:41:05;5.43;;;2.97;;
8626;SDS011;4351;51.422;6.794;2023-04-15T13:43:33;5.57;;;2.87;;
8626;SDS011;4351;51.422;6.794;2023-04-15T13:46:01;4.97;;;2.73;;
8626;SDS011;4351;51.422;6.794;2023-04-15T13:48:29;4.60;;;2.80;;
8626;SDS011;4351;51.422;6.794;2023-04-15T13:50:57;4.73;;;2.73;;
8626;SDS011;4351;51.422;6.794;2023-04-15T13:53:25;3.60;;;2.23;;
8626;SDS011;4351;51.422;6.794;2023-04-15T13:56:06;4.40;;;2.73;;
8626;SDS011;4351;51.422;6.794;2023-04-15T13:58:34;3.20;;;2.70;;
8626;SDS011;4351;51.422;6.794;2023-04-15T14:01:04;4.37;;;2.80;;
8626;SDS011;4351;51.422;6.794;2023-04-15T14:03:33;5.10;;;2.87;;
8626;SDS011;4351;51.422;6.794;2023-04-15T14:06:01;3.97;;;3.10;;
8626;SDS011;4351;51.422;6.794;2023-04-15T14:08:29;5.17;;;3.03;;
8626;SDS011;4351;51.422;6.794;2023-04-15T14:10:57;5.20;;;3.07;;
8626;SDS011;4351;51.422;6.794;2023-04-15T14:13:26;4.90;;;2.80;;
8626;SDS011;4351;51.422;6.794;2023-04-15T14:15:55;3.83;;;3.13;;
8626;SDS011;4351;51.422;6.794;2023-04-15T14:18:23;3.57;;;2.70;;
8626;SDS011;4351;51.422;6.794;2023-04-15T14:20:50;3.27;;;2.83;;
8626;SDS011;4351;51.422;6.794;2023-04-15T14:23:18;4.00;;;2.83;;
8626;SDS011;4351;51.422;6.794;2023-04-15T14:25:46;4.80;;;3.07;;
8626;SDS011;4351;51.422;6.794;2023-04-15T14:28:14;4.30;;;2.50;;
8626;SDS011;4351;51.422;6.794;2023-04-15T14:30:44;3.30;;;2.53;;
8626;SDS011;4351;51.422;6.794;2023-04-15T14:33:11;4.23;;;2.60;;
8626;SDS011;4351;51.422;6.794;2023-04-15T14:35:39;3.80;;;2.30;;
8626;SDS011;4351;51.422;6.794;2023-04-15T14:38:07;3.13;;;2.47;;
8626;SDS011;4351;51.422;6.794;2023-04-15T14:40:37;4.73;;;2.20;;
8626;SDS011;4351;51.422;6.794;2023-04-15T14:43:04;3.70;;;2.73;;
8626;SDS011;4351;51.422;6.794;2023-04-15T14:45:34;2.87;;;2.37;;
8626;SDS011;4351;51.422;6.794;2023-04-15T14:48:03;5.20;;;2.70;;
8626;SDS011;4351;51.422;6.794;2023-04-15T14:50:35;3.77;;;2.40;;
8626;SDS011;4351;51.422;6.794;2023-04-15T14:53:02;3.67;;;2.77;;
8626;SDS011;4351;51.422;6.794;2023-04-15T14:55:30;4.33;;;2.53;;
8626;SDS011;4351;51.422;6.794;2023-04-15T14:57:58;3.67;;;2.40;;
8626;SDS011;4351;51.422;6.794;2023-04-15T15:00:27;5.90;;;2.63;;
8626;SDS011;4351;51.422;6.794;2023-04-15T15:02:55;3.63;;;2.83;;
8626;SDS011;4351;51.422;6.794;2023-04-15T15:05:24;4.33;;;2.60;;
8626;SDS011;4351;51.422;6.794;2023-04-15T15:07:52;3.80;;;2.57;;
8626;SDS011;4351;51.422;6.794;2023-04-15T15:10:20;5.03;;;2.53;;
8626;SDS011;4351;51.422;6.794;2023-04-15T15:13:08;5.33;;;2.97;;
8626;SDS011;4351;51.422;6.794;2023-04-15T15:15:37;3.63;;;2.80;;
8626;SDS011;4351;51.422;6.794;2023-04-15T15:18:05;4.87;;;2.50;;
8626;SDS011;4351;51.422;6.794;2023-04-15T15:20:35;3.80;;;2.80;;
8626;SDS011;4351;51.422;6.794;2023-04-15T15:23:03;3.97;;;2.60;;
8626;SDS011;4351;51.422;6.794;2023-04-15T15:25:30;4.93;;;2.60;;
8626;SDS011;4351;51.422;6.794;2023-04-15T15:27:58;4.03;;;3.17;;